sensor_id;sensor_type;location;lat;lon;timestamp;pressure;altitude;pressure_sealevel;temperature;humidity
77410;BME280;66481;51.332;22.804;2022-12-29T11:29:55;99260.56;;;5.81;56.57
77410;BME280;66481;51.332;22.804;2022-12-29T11:32:24;99252.66;;;6.10;54.80
77410;BME280;66481;51.332;22.804;2022-12-29T11:34:50;99255.44;;;6.36;55.27
77410;BME280;66481;51.332;22.804;2022-12-29T11:37:42;99264.84;;;6.26;55.05
77410;BME280;66481;51.332;22.804;2022-12-29T11:40:19;99252.44;;;6.28;54.94
77410;BME280;66481;51.332;22.804;2022-12-29T11:42:52;99270.66;;;6.58;54.15
77410;BME280;66481;51.332;22.804;2022-12-29T11:45:24;99269.34;;;7.05;53.16
77410;BME280;66481;51.332;22.804;2022-12-29T11:47:57;99250.00;;;7.06;52.52
77410;BME280;66481;51.332;22.804;2022-12-29T11:50:31;99263.69;;;6.71;54.54
77410;BME280;66481;51.332;22.804;2022-12-29T11:53:01;99266.75;;;6.51;54.78
77410;BME280;66481;51.332;22.804;2022-12-29T11:55:30;99269.31;;;6.65;54.88
77410;BME280;66481;51.332;22.804;2022-12-29T11:57:59;99250.19;;;7.03;53.43
77410;BME280;66481;51.332;22.804;2022-12-29T12:00:28;99241.47;;;7.15;51.82
77410;BME280;66481;51.332;22.804;2022-12-29T12:10:30;99263.56;;;6.73;53.21
77410;BME280;66481;51.332;22.804;2022-12-29T12:15:30;99263.25;;;6.23;55.90
77410;BME280;66481;51.332;22.804;2022-12-29T12:20:56;99268.41;;;6.10;57.10
77410;BME280;66481;51.332;22.804;2022-12-29T12:23:43;99267.00;;;6.19;55.98
77410;BME280;66481;51.332;22.804;2022-12-29T12:26:17;99271.31;;;6.20;56.97
77410;BME280;66481;51.332;22.804;2022-12-29T12:29:01;99269.16;;;6.27;55.98
77410;BME280;66481;51.332;22.804;2022-12-29T12:32:10;99270.38;;;6.21;56.57
77410;BME280;66481;51.332;22.804;2022-12-29T12:34:45;99268.59;;;6.21;57.04
77410;BME280;66481;51.332;22.804;2022-12-29T12:37:36;99267.88;;;6.19;57.32
77410;BME280;66481;51.332;22.804;2022-12-29T12:43:05;99260.06;;;6.18;57.75
77410;BME280;66481;51.332;22.804;2022-12-29T12:55:10;99260.63;;;6.23;56.42
77410;BME280;66481;51.332;22.804;2022-12-29T13:00:01;99266.16;;;6.18;56.85
77410;BME280;66481;51.332;22.804;2022-12-29T13:32:49;99285.78;;;5.98;58.98
77410;BME280;66481;51.332;22.804;2022-12-29T13:40:50;99292.31;;;5.77;60.42
77410;BME280;66481;51.332;22.804;2022-12-29T13:43:19;99295.41;;;5.69;60.47
77410;BME280;66481;51.332;22.804;2022-12-29T13:46:01;99293.41;;;5.58;61.41
77410;BME280;66481;51.332;22.804;2022-12-29T13:48:37;99289.78;;;5.61;60.90
77410;BME280;66481;51.332;22.804;2022-12-29T13:51:08;99302.50;;;5.53;61.23
77410;BME280;66481;51.332;22.804;2022-12-29T13:56:28;99313.75;;;5.40;62.12
77410;BME280;66481;51.332;22.804;2022-12-29T14:05:05;99309.00;;;5.31;61.86
77410;BME280;66481;51.332;22.804;2022-12-29T14:07:58;99303.59;;;5.34;61.02
77410;BME280;66481;51.332;22.804;2022-12-29T14:10:46;99309.88;;;5.32;61.17
77410;BME280;66481;51.332;22.804;2022-12-29T14:13:18;99306.69;;;5.26;61.00
77410;BME280;66481;51.332;22.804;2022-12-29T14:15:53;99323.00;;;5.32;61.09
77410;BME280;66481;51.332;22.804;2022-12-29T14:18:22;99315.94;;;5.18;61.60
77410;BME280;66481;51.332;22.804;2022-12-29T14:21:03;99305.34;;;5.19;61.63
77410;BME280;66481;51.332;22.804;2022-12-29T14:23:42;99303.03;;;5.29;61.32
77410;BME280;66481;51.332;22.804;2022-12-29T14:26:14;99319.25;;;5.36;60.90
77410;BME280;66481;51.332;22.804;2022-12-29T14:28:45;99301.53;;;5.25;61.56
77410;BME280;66481;51.332;22.804;2022-12-29T14:39:25;99306.16;;;4.89;63.60
77410;BME280;66481;51.332;22.804;2022-12-29T14:42:33;99303.78;;;5.01;62.69
77410;BME280;66481;51.332;22.804;2022-12-29T14:45:02;99308.13;;;4.86;63.46
77410;BME280;66481;51.332;22.804;2022-12-29T14:47:31;99303.84;;;4.69;63.97
77410;BME280;66481;51.332;22.804;2022-12-29T14:52:51;99290.91;;;4.66;64.00
77410;BME280;66481;51.332;22.804;2022-12-29T14:55:43;99285.31;;;4.72;63.63
77410;BME280;66481;51.332;22.804;2022-12-29T14:58:17;99285.88;;;4.77;63.51
77410;BME280;66481;51.332;22.804;2022-12-29T15:00:44;99280.34;;;4.51;64.53
77410;BME280;66481;51.332;22.804;2022-12-29T15:05:46;99295.81;;;4.56;64.26
77410;BME280;66481;51.332;22.804;2022-12-29T15:08:17;99301.41;;;4.50;65.19
77410;BME280;66481;51.332;22.804;2022-12-29T15:10:49;99289.66;;;4.41;65.25
77410;BME280;66481;51.332;22.804;2022-12-29T15:13:22;99290.22;;;4.46;65.02
77410;BME280;66481;51.332;22.804;2022-12-29T15:15:48;99285.09;;;4.45;65.04
77410;BME280;66481;51.332;22.804;2022-12-29T15:18:29;99296.94;;;4.52;64.91
77410;BME280;66481;51.332;22.804;2022-12-29T15:21:00;99285.56;;;4.51;64.10
77410;BME280;66481;51.332;22.804;2022-12-29T15:23:29;99295.72;;;4.58;63.91
77410;BME280;66481;51.332;22.804;2022-12-29T15:28:40;99283.31;;;4.45;64.19
77410;BME280;66481;51.332;22.804;2022-12-29T15:31:12;99274.69;;;4.43;64.55
77410;BME280;66481;51.332;22.804;2022-12-29T15:33:43;99269.19;;;4.48;64.27
77410;BME280;66481;51.332;22.804;2022-12-29T15:36:12;99280.69;;;4.45;64.52
77410;BME280;66481;51.332;22.804;2022-12-29T15:38:39;99285.50;;;4.37;64.82
77410;BME280;66481;51.332;22.804;2022-12-29T15:44:14;99274.44;;;4.32;65.04
77410;BME280;66481;51.332;22.804;2022-12-29T15:46:43;99278.50;;;4.38;64.74
77410;BME280;66481;51.332;22.804;2022-12-29T15:49:13;99290.06;;;4.33;64.78
77410;BME280;66481;51.332;22.804;2022-12-29T15:51:40;99282.66;;;4.26;65.13
77410;BME280;66481;51.332;22.804;2022-12-29T15:54:17;99282.81;;;4.39;65.50
77410;BME280;66481;51.332;22.804;2022-12-29T15:56:44;99295.16;;;4.37;65.40
77410;BME280;66481;51.332;22.804;2022-12-29T15:59:31;99290.50;;;4.42;65.17
77410;BME280;66481;51.332;22.804;2022-12-29T16:02:00;99293.53;;;4.34;65.38
77410;BME280;66481;51.332;22.804;2022-12-29T16:04:32;99290.06;;;4.33;65.93
77410;BME280;66481;51.332;22.804;2022-12-29T16:07:03;99293.59;;;4.32;66.70
77410;BME280;66481;51.332;22.804;2022-12-29T16:09:35;99283.81;;;4.52;64.48
77410;BME280;66481;51.332;22.804;2022-12-29T16:12:06;99297.69;;;4.54;64.75
77410;BME280;66481;51.332;22.804;2022-12-29T16:14:44;99296.16;;;4.50;65.83
77410;BME280;66481;51.332;22.804;2022-12-29T16:17:13;99289.91;;;4.52;65.05
77410;BME280;66481;51.332;22.804;2022-12-29T16:19:42;99298.31;;;4.74;64.68
77410;BME280;66481;51.332;22.804;2022-12-29T16:24:49;99291.34;;;4.74;63.92
77410;BME280;66481;51.332;22.804;2022-12-29T16:27:35;99288.88;;;4.71;64.22
77410;BME280;66481;51.332;22.804;2022-12-29T16:30:16;99289.19;;;4.81;63.86
77410;BME280;66481;51.332;22.804;2022-12-29T16:32:47;99280.56;;;4.79;64.44
77410;BME280;66481;51.332;22.804;2022-12-29T16:35:22;99297.13;;;4.79;64.18
77410;BME280;66481;51.332;22.804;2022-12-29T16:38:10;99301.28;;;4.83;63.78
77410;BME280;66481;51.332;22.804;2022-12-29T16:40:53;99306.94;;;4.92;63.75
77410;BME280;66481;51.332;22.804;2022-12-29T16:43:24;99290.09;;;4.96;63.41
77410;BME280;66481;51.332;22.804;2022-12-29T16:48:21;99283.66;;;5.01;63.69
77410;BME280;66481;51.332;22.804;2022-12-29T16:50:51;99285.25;;;5.04;62.81
77410;BME280;66481;51.332;22.804;2022-12-29T16:53:24;99271.97;;;5.07;62.78
77410;BME280;66481;51.332;22.804;2022-12-29T16:55:52;99293.41;;;5.14;63.23
77410;BME280;66481;51.332;22.804;2022-12-29T16:58:22;99294.78;;;5.05;63.15
77410;BME280;66481;51.332;22.804;2022-12-29T17:00:53;99285.94;;;5.07;62.96
77410;BME280;66481;51.332;22.804;2022-12-29T17:03:21;99289.94;;;4.99;63.76
77410;BME280;66481;51.332;22.804;2022-12-29T17:05:47;99287.38;;;4.97;63.73
77410;BME280;66481;51.332;22.804;2022-12-29T17:08:18;99290.50;;;5.04;63.27
77410;BME280;66481;51.332;22.804;2022-12-29T17:10:52;99290.19;;;4.94;64.24
77410;BME280;66481;51.332;22.804;2022-12-29T17:13:38;99282.56;;;4.89;64.19
77410;BME280;66481;51.332;22.804;2022-12-29T17:16:10;99296.09;;;4.98;63.78
77410;BME280;66481;51.332;22.804;2022-12-29T17:18:37;99300.00;;;4.90;64.18
77410;BME280;66481;51.332;22.804;2022-12-29T17:21:04;99297.78;;;4.99;63.34
77410;BME280;66481;51.332;22.804;2022-12-29T17:23:32;99287.69;;;4.77;64.69
77410;BME280;66481;51.332;22.804;2022-12-29T17:25:59;99300.03;;;4.75;64.84
77410;BME280;66481;51.332;22.804;2022-12-29T17:28:28;99294.63;;;4.62;65.01
77410;BME280;66481;51.332;22.804;2022-12-29T17:31:00;99297.69;;;4.54;65.71
77410;BME280;66481;51.332;22.804;2022-12-29T17:33:30;99286.44;;;4.52;65.46
77410;BME280;66481;51.332;22.804;2022-12-29T17:35:59;99284.81;;;4.49;65.98
77410;BME280;66481;51.332;22.804;2022-12-29T17:38:28;99274.44;;;4.48;65.99
77410;BME280;66481;51.332;22.804;2022-12-29T17:40:55;99272.69;;;4.48;66.14
77410;BME280;66481;51.332;22.804;2022-12-29T17:43:21;99272.84;;;4.45;65.89
77410;BME280;66481;51.332;22.804;2022-12-29T17:45:56;99275.38;;;4.47;66.18
77410;BME280;66481;51.332;22.804;2022-12-29T17:48:24;99284.06;;;4.47;66.19
77410;BME280;66481;51.332;22.804;2022-12-29T17:50:52;99280.19;;;4.39;66.34
77410;BME280;66481;51.332;22.804;2022-12-29T17:53:19;99287.44;;;4.33;66.91
77410;BME280;66481;51.332;22.804;2022-12-29T17:55:46;99271.41;;;4.40;66.59
77410;BME280;66481;51.332;22.804;2022-12-29T17:58:16;99295.38;;;4.32;66.42
77410;BME280;66481;51.332;22.804;2022-12-29T18:00:44;99279.25;;;4.24;67.16
77410;BME280;66481;51.332;22.804;2022-12-29T18:03:31;99281.88;;;4.24;66.99
77410;BME280;66481;51.332;22.804;2022-12-29T18:05:58;99277.34;;;4.27;66.89
77410;BME280;66481;51.332;22.804;2022-12-29T18:08:24;99284.84;;;4.18;67.21
77410;BME280;66481;51.332;22.804;2022-12-29T18:10:51;99280.19;;;4.23;67.05
77410;BME280;66481;51.332;22.804;2022-12-29T18:13:24;99300.19;;;4.24;67.05
77410;BME280;66481;51.332;22.804;2022-12-29T18:15:52;99286.50;;;4.19;67.19
77410;BME280;66481;51.332;22.804;2022-12-29T18:18:20;99290.47;;;4.10;67.50
77410;BME280;66481;51.332;22.804;2022-12-29T18:20:49;99294.13;;;4.07;67.58
77410;BME280;66481;51.332;22.804;2022-12-29T18:23:21;99297.50;;;4.09;67.59
77410;BME280;66481;51.332;22.804;2022-12-29T18:25:54;99302.34;;;4.00;68.32
77410;BME280;66481;51.332;22.804;2022-12-29T18:28:21;99299.94;;;3.97;68.67
77410;BME280;66481;51.332;22.804;2022-12-29T18:30:48;99296.16;;;4.18;67.25
77410;BME280;66481;51.332;22.804;2022-12-29T18:33:16;99313.72;;;4.16;68.22
77410;BME280;66481;51.332;22.804;2022-12-29T18:36:03;99311.25;;;4.13;68.26
77410;BME280;66481;51.332;22.804;2022-12-29T18:38:30;99305.84;;;4.16;68.59
77410;BME280;66481;51.332;22.804;2022-12-29T18:41:01;99318.03;;;4.17;68.05
77410;BME280;66481;51.332;22.804;2022-12-29T18:43:27;99313.63;;;4.18;68.37
77410;BME280;66481;51.332;22.804;2022-12-29T18:45:54;99313.47;;;4.21;68.38
77410;BME280;66481;51.332;22.804;2022-12-29T18:48:21;99314.47;;;4.18;68.67
77410;BME280;66481;51.332;22.804;2022-12-29T18:50:48;99310.78;;;4.22;68.30
77410;BME280;66481;51.332;22.804;2022-12-29T18:53:20;99315.06;;;4.23;68.00
77410;BME280;66481;51.332;22.804;2022-12-29T18:55:47;99313.63;;;4.18;68.93
77410;BME280;66481;51.332;22.804;2022-12-29T18:58:13;99307.66;;;4.16;68.91
77410;BME280;66481;51.332;22.804;2022-12-29T19:00:41;99304.44;;;4.26;68.20
77410;BME280;66481;51.332;22.804;2022-12-29T19:03:11;99298.59;;;4.21;68.32
77410;BME280;66481;51.332;22.804;2022-12-29T19:05:39;99315.59;;;4.30;68.00
77410;BME280;66481;51.332;22.804;2022-12-29T19:08:06;99316.41;;;4.30;68.33
77410;BME280;66481;51.332;22.804;2022-12-29T19:10:33;99316.34;;;4.32;67.76
77410;BME280;66481;51.332;22.804;2022-12-29T19:13:00;99316.19;;;4.35;67.88
77410;BME280;66481;51.332;22.804;2022-12-29T19:15:31;99330.28;;;4.32;68.21
77410;BME280;66481;51.332;22.804;2022-12-29T19:17:59;99323.13;;;4.36;68.78
77410;BME280;66481;51.332;22.804;2022-12-29T19:23:04;99322.69;;;4.44;67.90
77410;BME280;66481;51.332;22.804;2022-12-29T19:25:31;99324.13;;;4.49;68.04
77410;BME280;66481;51.332;22.804;2022-12-29T19:27:58;99316.19;;;4.51;68.18
77410;BME280;66481;51.332;22.804;2022-12-29T19:30:26;99311.53;;;4.56;68.37
77410;BME280;66481;51.332;22.804;2022-12-29T19:32:53;99318.63;;;4.54;67.56
77410;BME280;66481;51.332;22.804;2022-12-29T19:35:22;99319.97;;;4.61;67.24
77410;BME280;66481;51.332;22.804;2022-12-29T19:37:48;99304.78;;;4.68;67.43
77410;BME280;66481;51.332;22.804;2022-12-29T19:40:18;99312.72;;;4.66;67.52
77410;BME280;66481;51.332;22.804;2022-12-29T19:42:44;99316.50;;;4.77;67.53
77410;BME280;66481;51.332;22.804;2022-12-29T19:45:11;99299.88;;;4.78;66.72
77410;BME280;66481;51.332;22.804;2022-12-29T19:47:37;99313.63;;;4.81;67.11
77410;BME280;66481;51.332;22.804;2022-12-29T19:50:05;99304.75;;;4.84;66.62
77410;BME280;66481;51.332;22.804;2022-12-29T19:52:32;99304.06;;;4.80;67.92
77410;BME280;66481;51.332;22.804;2022-12-29T19:54:59;99305.84;;;4.80;67.19
77410;BME280;66481;51.332;22.804;2022-12-29T19:57:25;99308.03;;;4.87;66.79
77410;BME280;66481;51.332;22.804;2022-12-29T19:59:52;99296.03;;;4.83;67.40
77410;BME280;66481;51.332;22.804;2022-12-29T20:02:31;99293.59;;;4.80;67.20
77410;BME280;66481;51.332;22.804;2022-12-29T20:04:57;99284.13;;;4.78;67.39
77410;BME280;66481;51.332;22.804;2022-12-29T20:07:24;99297.81;;;4.83;67.32
77410;BME280;66481;51.332;22.804;2022-12-29T20:09:51;99294.94;;;4.87;67.75
77410;BME280;66481;51.332;22.804;2022-12-29T20:12:18;99300.91;;;4.89;67.02
77410;BME280;66481;51.332;22.804;2022-12-29T20:14:46;99284.72;;;4.83;67.13
77410;BME280;66481;51.332;22.804;2022-12-29T20:17:14;99296.25;;;4.95;66.80
77410;BME280;66481;51.332;22.804;2022-12-29T20:19:41;99279.84;;;4.91;67.22
77410;BME280;66481;51.332;22.804;2022-12-29T20:22:08;99286.06;;;4.90;67.37
77410;BME280;66481;51.332;22.804;2022-12-29T20:24:37;99291.56;;;4.85;67.45
77410;BME280;66481;51.332;22.804;2022-12-29T20:27:06;99281.91;;;4.86;67.99
77410;BME280;66481;51.332;22.804;2022-12-29T20:29:37;99281.78;;;4.73;68.40
77410;BME280;66481;51.332;22.804;2022-12-29T20:32:16;99283.63;;;4.71;68.23
77410;BME280;66481;51.332;22.804;2022-12-29T20:34:45;99285.72;;;4.80;68.00
77410;BME280;66481;51.332;22.804;2022-12-29T20:37:12;99282.53;;;4.75;68.60
77410;BME280;66481;51.332;22.804;2022-12-29T20:39:40;99293.59;;;4.80;68.07
77410;BME280;66481;51.332;22.804;2022-12-29T20:42:07;99287.84;;;4.74;68.10
77410;BME280;66481;51.332;22.804;2022-12-29T20:44:34;99279.06;;;4.75;68.01
77410;BME280;66481;51.332;22.804;2022-12-29T20:47:01;99300.78;;;4.77;67.44
77410;BME280;66481;51.332;22.804;2022-12-29T20:49:29;99293.00;;;4.75;68.30
77410;BME280;66481;51.332;22.804;2022-12-29T20:51:56;99293.50;;;4.82;67.71
77410;BME280;66481;51.332;22.804;2022-12-29T20:54:23;99286.88;;;4.90;67.56
77410;BME280;66481;51.332;22.804;2022-12-29T20:56:49;99288.38;;;4.95;68.01
77410;BME280;66481;51.332;22.804;2022-12-29T20:59:17;99278.69;;;4.97;68.15
77410;BME280;66481;51.332;22.804;2022-12-29T21:01:43;99285.88;;;4.93;68.04
77410;BME280;66481;51.332;22.804;2022-12-29T21:04:09;99290.44;;;4.89;67.91
77410;BME280;66481;51.332;22.804;2022-12-29T21:06:35;99288.84;;;4.87;67.99
77410;BME280;66481;51.332;22.804;2022-12-29T21:09:02;99279.78;;;4.93;68.18
77410;BME280;66481;51.332;22.804;2022-12-29T21:11:29;99291.78;;;4.97;67.73
77410;BME280;66481;51.332;22.804;2022-12-29T21:13:55;99292.63;;;4.97;68.62
77410;BME280;66481;51.332;22.804;2022-12-29T21:16:24;99286.56;;;4.97;68.25
77410;BME280;66481;51.332;22.804;2022-12-29T21:18:50;99288.88;;;5.01;67.72
77410;BME280;66481;51.332;22.804;2022-12-29T21:21:21;99296.59;;;5.04;67.28
77410;BME280;66481;51.332;22.804;2022-12-29T21:23:49;99293.88;;;5.06;67.47
77410;BME280;66481;51.332;22.804;2022-12-29T21:26:17;99280.03;;;5.04;68.05
77410;BME280;66481;51.332;22.804;2022-12-29T21:28:44;99286.59;;;5.11;67.12
77410;BME280;66481;51.332;22.804;2022-12-29T21:31:28;99286.50;;;5.13;67.92
77410;BME280;66481;51.332;22.804;2022-12-29T21:33:55;99278.72;;;5.11;67.37
77410;BME280;66481;51.332;22.804;2022-12-29T21:36:22;99286.34;;;5.16;67.95
77410;BME280;66481;51.332;22.804;2022-12-29T21:38:49;99287.91;;;5.18;68.00
77410;BME280;66481;51.332;22.804;2022-12-29T21:41:15;99289.97;;;5.13;67.84
77410;BME280;66481;51.332;22.804;2022-12-29T21:43:46;99288.59;;;5.22;67.36
77410;BME280;66481;51.332;22.804;2022-12-29T21:46:32;99300.19;;;5.18;67.59
77410;BME280;66481;51.332;22.804;2022-12-29T21:48:59;99294.09;;;5.17;67.06
77410;BME280;66481;51.332;22.804;2022-12-29T21:51:25;99275.13;;;5.28;67.24
77410;BME280;66481;51.332;22.804;2022-12-29T21:54:09;99290.84;;;5.28;66.89
77410;BME280;66481;51.332;22.804;2022-12-29T21:56:54;99292.34;;;5.32;66.54
77410;BME280;66481;51.332;22.804;2022-12-29T21:59:20;99287.03;;;5.34;66.67
77410;BME280;66481;51.332;22.804;2022-12-29T22:02:21;99290.38;;;5.36;67.33
77410;BME280;66481;51.332;22.804;2022-12-29T22:05:08;99300.31;;;5.31;67.47
77410;BME280;66481;51.332;22.804;2022-12-29T22:07:53;99288.19;;;5.14;67.65
77410;BME280;66481;51.332;22.804;2022-12-29T22:10:42;99273.69;;;5.22;67.21
77410;BME280;66481;51.332;22.804;2022-12-29T22:13:30;99275.28;;;5.25;67.78
77410;BME280;66481;51.332;22.804;2022-12-29T22:15:56;99278.91;;;5.22;67.48
77410;BME280;66481;51.332;22.804;2022-12-29T22:18:23;99262.25;;;5.23;67.69
77410;BME280;66481;51.332;22.804;2022-12-29T22:20:50;99276.63;;;5.32;67.67
77410;BME280;66481;51.332;22.804;2022-12-29T22:23:16;99279.97;;;5.20;67.64
77410;BME280;66481;51.332;22.804;2022-12-29T22:25:42;99286.13;;;5.19;67.57
77410;BME280;66481;51.332;22.804;2022-12-29T22:28:09;99275.63;;;5.19;67.78
77410;BME280;66481;51.332;22.804;2022-12-29T22:30:35;99269.38;;;5.21;67.71
77410;BME280;66481;51.332;22.804;2022-12-29T22:33:02;99276.03;;;5.27;67.49
77410;BME280;66481;51.332;22.804;2022-12-29T22:35:28;99273.97;;;5.18;67.53
77410;BME280;66481;51.332;22.804;2022-12-29T22:37:54;99279.13;;;5.19;68.20
77410;BME280;66481;51.332;22.804;2022-12-29T22:40:21;99292.03;;;5.22;67.82
77410;BME280;66481;51.332;22.804;2022-12-29T22:42:47;99286.03;;;5.20;68.07
77410;BME280;66481;51.332;22.804;2022-12-29T22:45:13;99288.50;;;5.23;67.55
77410;BME280;66481;51.332;22.804;2022-12-29T22:47:39;99281.75;;;5.19;67.98
77410;BME280;66481;51.332;22.804;2022-12-29T22:50:06;99281.28;;;5.27;67.82
77410;BME280;66481;51.332;22.804;2022-12-29T22:52:32;99281.28;;;5.27;67.44
77410;BME280;66481;51.332;22.804;2022-12-29T22:54:58;99252.75;;;5.37;67.20
77410;BME280;66481;51.332;22.804;2022-12-29T22:57:24;99279.25;;;5.32;67.22
77410;BME280;66481;51.332;22.804;2022-12-29T22:59:50;99294.13;;;5.32;67.75
77410;BME280;66481;51.332;22.804;2022-12-29T23:02:16;99293.28;;;5.31;67.46
77410;BME280;66481;51.332;22.804;2022-12-29T23:04:42;99283.47;;;5.35;67.04
77410;BME280;66481;51.332;22.804;2022-12-29T23:07:08;99284.31;;;5.35;66.84
77410;BME280;66481;51.332;22.804;2022-12-29T23:09:34;99284.31;;;5.35;67.49
77410;BME280;66481;51.332;22.804;2022-12-29T23:12:00;99279.41;;;5.29;67.94
77410;BME280;66481;51.332;22.804;2022-12-29T23:14:26;99279.41;;;5.29;67.63
77410;BME280;66481;51.332;22.804;2022-12-29T23:16:52;99287.66;;;5.23;67.77
77410;BME280;66481;51.332;22.804;2022-12-29T23:19:19;99283.56;;;5.33;67.38
77410;BME280;66481;51.332;22.804;2022-12-29T23:21:44;99293.97;;;5.35;67.52
77410;BME280;66481;51.332;22.804;2022-12-29T23:24:12;99283.66;;;5.32;67.38
77410;BME280;66481;51.332;22.804;2022-12-29T23:26:44;99292.53;;;5.29;67.61
77410;BME280;66481;51.332;22.804;2022-12-29T23:29:13;99295.06;;;5.31;67.62
77410;BME280;66481;51.332;22.804;2022-12-29T23:31:40;99304.06;;;5.26;67.89
77410;BME280;66481;51.332;22.804;2022-12-29T23:34:08;99305.06;;;5.24;67.88
77410;BME280;66481;51.332;22.804;2022-12-29T23:36:35;99303.97;;;5.28;66.93
77410;BME280;66481;51.332;22.804;2022-12-29T23:39:02;99288.31;;;5.26;68.06
77410;BME280;66481;51.332;22.804;2022-12-29T23:41:28;99311.47;;;5.34;67.45
77410;BME280;66481;51.332;22.804;2022-12-29T23:43:54;99301.84;;;5.35;67.31
77410;BME280;66481;51.332;22.804;2022-12-29T23:46:22;99304.25;;;5.38;67.00
77410;BME280;66481;51.332;22.804;2022-12-29T23:48:49;99312.34;;;5.35;67.88
77410;BME280;66481;51.332;22.804;2022-12-29T23:51:16;99307.03;;;5.20;67.74
77410;BME280;66481;51.332;22.804;2022-12-29T23:53:43;99319.63;;;5.30;67.71
77410;BME280;66481;51.332;22.804;2022-12-29T23:56:15;99316.50;;;5.23;68.19
77410;BME280;66481;51.332;22.804;2022-12-29T23:58:41;99314.06;;;5.20;67.88
